Upstream stations:
Downstream station:
SHEF ID: QUAO2 Spring River near Quapaw, OK
STATION TYPE:
Regulating: Stage = 20.00, Flow = 33676
PRECIP STAGE STAGE(2) RIV-FLOW BAT-LOAD
in ft ft cfs volt
Ccp-Rev Ccp-Rev Ccp-Rev Ccp-Rev Ccp-Rev
(US/Central)
04/03 00:00 0.00 7.62 7.87 2041 12.25
04/03 01:00 0.00 7.60 7.86 2014 12.23
04/03 02:00 0.00 7.59 7.85 2001 12.31
04/03 03:00 0.00 7.59 7.85 2001 12.27
04/03 04:00 0.00 7.58 7.84 1988 12.23
04/03 05:00 0.00 7.58 7.84 1988 12.31
04/03 06:00 0.00 7.58 7.83 1988 12.36
04/03 07:00 0.00 7.58 7.83 1988 12.32
04/03 08:00 0.00 7.57 7.82 1974 12.33
04/03 09:00 0.00 7.56 7.79 1961 12.64
04/03 10:00 0.00 7.56 7.75 1961 13.09
04/03 11:00 0.00 7.55 7.70 1948 13.42
04/03 12:00 0.00 7.54 7.67 1935 13.36
04/03 13:00 0.00 7.54 7.71 1935 12.87
04/03 14:00 0.00 7.53 7.69 1922 12.86
04/03 15:00 0.00 7.53 7.66 1922 12.97
04/03 16:00 0.00 7.53 7.66 1922 12.91
04/03 17:00 0.00 7.51 7.71 1896 12.86
04/03 18:00 0.00 7.49 7.72 1870 12.88
04/03 19:00 0.00 7.47 7.74 1845 12.82
04/03 20:00 0.00 7.47 7.74 1845 12.53
04/03 21:00 0.00 7.47 7.73 1845 12.46
04/03 22:00 0.00 7.45 7.73 1819 12.43
04/03 23:00 0.00 7.45 7.73 1819 12.44